Main page
METAR-TAF:

METAR-TAF

Airports :

Hagåtña, Guam, United States

Antonio B. Won Pat International Airport

latitude: 13-29N, longitude: 144-48E, elevation: 91 m

Current weather observation

The report was made 40 minutes ago, at 14:54 UTC
Wind 8 kt from the East
Temperature 27°C
Humidity 84%
Pressure 1010 hPa
Visibility: 16.1 km
Clear sky

METAR: PGUM 231454Z 09008KT 10SM CLR 27/24 A2982 RMK AO2 SLP091 T02670239 58012

Time: 01:34 (15:34 UTC)

Forecast

The report was made 4 hours and 8 minutes ago, at 11:26 UTC
Forecast valid from 23 at 12 UTC to 24 at 18 UTC
Wind 11 kt from the East
Visibility: 10 km
Scattered clouds at a height of 2100 ft

TAF: PGUM 231126Z 2312/2418 09011KT P6SM SCT021

Weather observations and forecasts of more than 4000 airports (METAR and TAF reports).

The available stations are represented by yellow and red dots on the map.

Hover mouse over dot to see the name of the station.

Then click to see weather observations and forecasts.

To change the map : click on the green buttons with a black cross to zoom in, on the green button with a dash to zoom out, or on the green arrows for adjacent maps.


METAR-TAF: